Time;durP1;ratioP1;P1;durP2;ratioP2;P2;SDS_P1;SDS_P2;PMS_P1;PMS_P2;Temp;Humidity;BMP_temperature;BMP_pressure;BME280_temperature;BME280_humidity;BME280_pressure;Samples;Min_cycle;Max_cycle;Signal;HPM_P1;HPM_P2
2022/04/16 00:00:27;;;;;;;5.70;5.20;;;12.70;99.90;;;;;;1039604;28;20512;-61
2022/04/16 00:00:58;;;;;;;5.90;5.03;;;12.70;99.90;;;;;;1039514;28;20014;-61
2022/04/16 00:01:29;;;;;;;5.88;5.10;;;12.70;99.90;;;;;;1039749;28;20368;-62
2022/04/16 00:02:00;;;;;;;6.73;5.53;;;12.70;99.90;;;;;;1035498;28;20461;-63
2022/04/16 00:02:31;;;;;;;8.77;6.13;;;12.70;99.90;;;;;;1039410;28;20022;-63
2022/04/16 00:03:01;;;;;;;7.17;5.33;;;12.70;99.90;;;;;;1039517;28;20029;-61
2022/04/16 00:03:33;;;;;;;6.40;5.57;;;12.70;99.90;;;;;;1039466;28;20028;-61
2022/04/16 00:04:04;;;;;;;5.60;5.10;;;12.60;99.90;;;;;;1039834;28;20028;-61
2022/04/16 00:04:35;;;;;;;6.03;5.43;;;12.60;99.90;;;;;;1039986;28;20024;-61
2022/04/16 00:05:06;;;;;;;5.90;5.10;;;12.60;99.90;;;;;;1039872;28;20060;-61
2022/04/16 00:05:36;;;;;;;6.57;5.28;;;12.60;99.90;;;;;;1039013;28;20014;-62
2022/04/16 00:06:07;;;;;;;7.73;5.40;;;12.60;99.90;;;;;;1035714;28;20033;-61
2022/04/16 00:06:37;;;;;;;5.57;4.83;;;12.60;99.90;;;;;;1035813;28;20149;-62
2022/04/16 00:07:08;;;;;;;6.33;5.40;;;12.60;99.90;;;;;;1035756;28;20109;-62
2022/04/16 00:07:39;;;;;;;6.13;5.13;;;12.60;99.90;;;;;;1035365;28;20499;-62
2022/04/16 00:08:10;;;;;;;6.82;6.13;;;12.60;99.90;;;;;;1035489;28;20751;-62
2022/04/16 00:08:41;;;;;;;7.63;5.87;;;12.60;99.90;;;;;;1035521;28;20489;-62
2022/04/16 00:09:12;;;;;;;6.30;5.57;;;12.60;99.90;;;;;;1035331;28;20021;-62
2022/04/16 00:09:42;;;;;;;6.70;5.73;;;12.60;99.90;;;;;;1035941;28;20113;-62
2022/04/16 00:10:13;;;;;;;5.10;4.60;;;12.60;99.90;;;;;;1035750;28;20029;-63
2022/04/16 00:10:44;;;;;;;5.93;5.33;;;12.60;99.90;;;;;;1035861;28;20049;-61
2022/04/16 00:11:14;;;;;;;6.78;5.18;;;12.60;99.90;;;;;;1035462;28;20101;-62
2022/04/16 00:11:45;;;;;;;5.77;5.17;;;12.60;99.90;;;;;;1035524;28;20014;-61
2022/04/16 00:12:15;;;;;;;6.60;5.10;;;12.60;99.90;;;;;;1035283;28;20018;-62
2022/04/16 00:12:46;;;;;;;5.87;5.27;;;12.60;99.90;;;;;;1035483;28;20559;-61
2022/04/16 00:13:18;;;;;;;6.53;5.83;;;12.60;99.90;;;;;;1035278;28;20469;-62
2022/04/16 00:13:50;;;;;;;5.72;5.13;;;12.60;99.90;;;;;;1035265;28;20014;-62
2022/04/16 00:14:21;;;;;;;5.57;5.07;;;12.50;99.90;;;;;;1038132;28;20022;-62
2022/04/16 00:14:52;;;;;;;5.87;5.27;;;12.50;99.90;;;;;;1035198;28;20068;-62
2022/04/16 00:15:22;;;;;;;5.85;5.25;;;12.50;99.90;;;;;;1035517;28;20009;-61
2022/04/16 00:15:53;;;;;;;6.43;5.60;;;12.50;99.90;;;;;;1039098;28;20154;-60
2022/04/16 00:16:24;;;;;;;10.10;5.80;;;12.50;99.90;;;;;;1039685;28;20389;-60
2022/04/16 00:16:54;;;;;;;6.40;5.80;;;12.50;99.90;;;;;;1039518;28;20014;-60
2022/04/16 00:17:25;;;;;;;6.23;5.07;;;12.50;99.90;;;;;;1039563;28;20082;-61
2022/04/16 00:17:56;;;;;;;6.17;5.40;;;12.50;99.90;;;;;;1039729;28;20012;-61
2022/04/16 00:18:27;;;;;;;6.50;5.90;;;12.50;99.90;;;;;;1039852;28;20402;-60
2022/04/16 00:18:57;;;;;;;7.67;6.10;;;12.50;99.90;;;;;;1039387;28;20021;-60
2022/04/16 00:19:28;;;;;;;5.97;5.37;;;12.50;99.90;;;;;;1039630;28;20033;-61
2022/04/16 00:20:02;;;;;;;7.60;6.17;;;12.50;99.90;;;;;;1039513;28;20041;-61
2022/04/16 00:20:34;;;;;;;6.10;5.53;;;12.50;99.90;;;;;;1039561;28;20440;-63
2022/04/16 00:21:04;;;;;;;5.88;5.28;;;12.50;99.90;;;;;;1039732;28;20013;-61
2022/04/16 00:21:38;;;;;;;6.50;5.63;;;12.50;99.90;;;;;;1039763;28;20014;-61
2022/04/16 00:22:12;;;;;;;5.50;4.90;;;12.40;99.90;;;;;;1039874;28;20704;-63
2022/04/16 00:22:42;;;;;;;6.10;5.50;;;12.40;99.90;;;;;;1039841;28;20014;-61
2022/04/16 00:23:13;;;;;;;7.03;6.10;;;12.40;99.90;;;;;;1039737;28;20017;-61
2022/04/16 00:23:43;;;;;;;6.10;5.03;;;12.40;99.90;;;;;;1039862;28;20017;-60
2022/04/16 00:24:14;;;;;;;9.20;5.50;;;12.40;99.90;;;;;;1039729;28;20021;-61
2022/04/16 00:24:48;;;;;;;7.80;5.60;;;12.40;99.90;;;;;;1039774;28;20420;-61
2022/04/16 00:25:19;;;;;;;6.13;5.53;;;12.40;99.90;;;;;;1039691;28;20010;-62
2022/04/16 00:25:50;;;;;;;6.77;6.07;;;12.40;99.90;;;;;;1039827;28;20045;-61
2022/04/16 00:26:21;;;;;;;7.37;6.03;;;12.40;99.90;;;;;;1039657;28;20029;-62
2022/04/16 00:26:52;;;;;;;7.93;5.88;;;12.40;99.90;;;;;;1039934;28;20380;-62
2022/04/16 00:27:24;;;;;;;5.90;5.30;;;12.40;99.90;;;;;;1039631;28;20469;-62
2022/04/16 00:27:55;;;;;;;6.72;5.85;;;12.40;99.90;;;;;;1039907;28;20032;-62
2022/04/16 00:28:28;;;;;;;6.13;5.50;;;12.40;99.90;;;;;;1039643;28;20100;-62
2022/04/16 00:28:59;;;;;;;7.45;5.60;;;12.40;99.90;;;;;;1039988;28;20024;-61
2022/04/16 00:29:30;;;;;;;5.43;4.93;;;12.40;99.90;;;;;;1039640;28;20052;-61
2022/04/16 00:30:03;;;;;;;7.30;5.80;;;12.40;99.90;;;;;;1039867;28;20275;-62
2022/04/16 00:30:39;;;;;;;6.25;5.55;;;12.40;99.90;;;;;;1039244;28;20134;-61
2022/04/16 00:31:09;;;;;;;6.75;6.10;;;12.40;99.90;;;;;;1039608;28;20476;-61
2022/04/16 00:31:40;;;;;;;6.57;5.87;;;12.40;99.90;;;;;;1039240;28;20100;-62
2022/04/16 00:32:11;;;;;;;6.70;6.10;;;12.30;99.90;;;;;;1036082;28;20120;-62
2022/04/16 00:32:41;;;;;;;6.67;5.90;;;12.30;99.90;;;;;;1039387;28;20017;-63
2022/04/16 00:33:15;;;;;;;8.83;6.10;;;12.30;99.90;;;;;;1039483;28;20096;-61
2022/04/16 00:33:47;;;;;;;5.65;5.13;;;12.30;99.90;;;;;;1035731;28;20014;-61
2022/04/16 00:34:18;;;;;;;7.30;5.88;;;12.30;99.90;;;;;;1035386;28;20034;-62
2022/04/16 00:34:49;;;;;;;6.72;5.95;;;12.30;99.90;;;;;;1035315;28;20144;-61
2022/04/16 00:35:19;;;;;;;6.43;5.70;;;12.30;99.90;;;;;;1035840;28;20018;-60
2022/04/16 00:35:50;;;;;;;7.37;6.20;;;12.30;99.90;;;;;;1039392;28;20017;-62
2022/04/16 00:36:21;;;;;;;6.03;5.43;;;12.30;99.90;;;;;;1039873;28;20045;-61
2022/04/16 00:36:51;;;;;;;6.38;5.78;;;12.30;99.90;;;;;;1039563;28;20517;-62
2022/04/16 00:37:22;;;;;;;7.83;5.67;;;12.30;99.90;;;;;;1039861;28;20021;-62
2022/04/16 00:37:52;;;;;;;7.00;6.13;;;12.30;99.90;;;;;;1039666;28;20006;-61
2022/04/16 00:38:23;;;;;;;6.00;5.30;;;12.30;99.90;;;;;;1039815;28;20022;-61
2022/04/16 00:38:54;;;;;;;5.77;5.17;;;12.30;99.90;;;;;;1039704;28;20005;-63
2022/04/16 00:39:24;;;;;;;5.90;5.30;;;12.30;99.90;;;;;;1039582;28;20040;-62
2022/04/16 00:39:55;;;;;;;6.93;5.90;;;12.40;99.90;;;;;;1039524;28;20468;-62
2022/04/16 00:40:26;;;;;;;6.40;5.80;;;12.40;99.90;;;;;;1039767;28;20017;-62
2022/04/16 00:40:56;;;;;;;6.07;5.27;;;12.40;99.90;;;;;;1039505;28;20091;-62
2022/04/16 00:41:27;;;;;;;6.90;6.03;;;12.40;99.90;;;;;;1039628;28;20017;-62
2022/04/16 00:41:58;;;;;;;6.93;5.93;;;12.40;99.90;;;;;;1039578;28;20006;-63
2022/04/16 00:42:39;;;;;;;7.72;6.07;;;12.40;99.90;;;;;;1039313;28;20010;-62
2022/04/16 00:43:27;;;;;;;5.97;5.25;;;12.40;99.90;;;;;;1039338;28;20014;-61
2022/04/16 00:43:58;;;;;;;6.45;5.85;;;12.40;99.90;;;;;;1035104;28;20398;-61
2022/04/16 00:44:28;;;;;;;8.07;6.30;;;12.40;99.90;;;;;;1035408;28;20473;-62
2022/04/16 00:44:59;;;;;;;7.77;6.50;;;12.40;99.90;;;;;;1035303;28;20525;-62
2022/04/16 00:45:30;;;;;;;6.50;5.90;;;12.40;99.90;;;;;;1035338;28;20406;-62
2022/04/16 00:46:00;;;;;;;6.70;5.30;;;12.40;99.90;;;;;;1035267;28;20018;-63
2022/04/16 00:46:31;;;;;;;6.63;6.03;;;12.40;99.90;;;;;;1035627;28;20045;-64
2022/04/16 00:47:02;;;;;;;7.60;6.00;;;12.40;99.90;;;;;;1035286;28;20014;-62
2022/04/16 00:47:33;;;;;;;7.57;6.83;;;12.40;99.90;;;;;;1035317;28;20018;-62
2022/04/16 00:48:05;;;;;;;6.78;6.07;;;12.40;99.90;;;;;;1035315;28;20029;-61
2022/04/16 00:48:35;;;;;;;5.93;5.40;;;12.40;99.90;;;;;;1035368;28;20018;-62
2022/04/16 00:49:06;;;;;;;6.73;5.93;;;12.30;99.90;;;;;;1035789;28;20021;-62
2022/04/16 00:49:37;;;;;;;6.70;6.10;;;12.30;99.90;;;;;;1034884;28;20022;-62
2022/04/16 00:50:09;;;;;;;6.07;5.47;;;12.30;99.90;;;;;;1035366;28;20025;-62
2022/04/16 00:50:40;;;;;;;6.90;6.22;;;12.30;99.90;;;;;;1035353;28;20021;-61
2022/04/16 00:51:13;;;;;;;6.88;6.05;;;12.30;99.90;;;;;;1039435;28;20024;-64
2022/04/16 00:51:45;;;;;;;5.95;5.35;;;12.30;99.90;;;;;;1039805;28;20025;-61
2022/04/16 00:52:16;;;;;;;7.20;5.93;;;12.30;99.90;;;;;;1039639;28;20020;-62
2022/04/16 00:52:48;;;;;;;5.90;5.40;;;12.30;99.90;;;;;;1039824;28;20024;-61
2022/04/16 00:53:19;;;;;;;6.68;6.00;;;12.30;99.90;;;;;;1039759;28;20456;-62
2022/04/16 00:53:50;;;;;;;6.32;5.72;;;12.30;99.90;;;;;;1039364;28;20349;-62
2022/04/16 00:54:20;;;;;;;6.17;5.57;;;12.30;99.90;;;;;;1039415;28;20382;-63
2022/04/16 00:54:54;;;;;;;6.77;5.67;;;12.30;99.90;;;;;;1039252;28;20010;-62
2022/04/16 00:55:25;;;;;;;7.15;5.85;;;12.30;99.90;;;;;;1039369;28;20096;-62
2022/04/16 00:56:00;;;;;;;7.03;6.32;;;12.30;99.90;;;;;;1039763;28;20067;-62
2022/04/16 00:56:31;;;;;;;6.40;5.80;;;12.30;99.90;;;;;;1039486;28;20041;-63
2022/04/16 00:57:01;;;;;;;7.70;5.93;;;12.30;99.90;;;;;;1039957;28;20009;-63
2022/04/16 00:57:32;;;;;;;6.23;5.63;;;12.30;99.90;;;;;;1039468;28;20010;-63
2022/04/16 00:58:03;;;;;;;7.20;5.93;;;12.30;99.90;;;;;;1039868;28;20074;-62
2022/04/16 00:58:34;;;;;;;7.77;6.30;;;12.30;99.90;;;;;;1039288;28;20014;-62
2022/04/16 00:59:05;;;;;;;8.10;6.07;;;12.30;99.90;;;;;;1039688;28;20264;-62
2022/04/16 00:59:35;;;;;;;6.50;5.80;;;12.30;99.90;;;;;;1039671;28;20010;-61
2022/04/16 01:00:12;;;;;;;6.30;5.67;;;12.30;99.90;;;;;;1039737;28;20018;-62
2022/04/16 01:00:43;;;;;;;6.10;5.50;;;12.30;99.90;;;;;;1039217;28;20400;-62
2022/04/16 01:01:13;;;;;;;6.73;6.03;;;12.20;99.90;;;;;;1039472;28;20384;-61
2022/04/16 01:01:44;;;;;;;7.73;6.43;;;12.20;99.90;;;;;;1039200;28;20018;-61
2022/04/16 01:02:14;;;;;;;6.93;6.23;;;12.20;99.90;;;;;;1039442;28;20045;-61
2022/04/16 01:02:46;;;;;;;6.53;5.43;;;12.20;99.90;;;;;;1039616;28;20130;-62
2022/04/16 01:03:18;;;;;;;7.57;6.32;;;12.20;99.90;;;;;;1039198;28;20488;-62
2022/04/16 01:03:48;;;;;;;6.30;5.70;;;12.20;99.90;;;;;;1039397;28;20001;-61
2022/04/16 01:04:19;;;;;;;7.73;6.27;;;12.20;99.90;;;;;;1039443;28;20029;-61
2022/04/16 01:04:50;;;;;;;6.30;5.70;;;12.20;99.90;;;;;;1039267;28;20024;-62
2022/04/16 01:05:21;;;;;;;7.30;6.60;;;12.20;99.90;;;;;;1039158;28;20010;-61
2022/04/16 01:05:52;;;;;;;7.45;5.88;;;12.20;99.90;;;;;;1039057;28;20113;-64
2022/04/16 01:06:22;;;;;;;7.63;6.23;;;12.20;99.90;;;;;;1039328;28;20108;-62
2022/04/16 01:06:53;;;;;;;6.83;6.13;;;12.20;99.90;;;;;;1035300;28;20089;-60
2022/04/16 01:07:25;;;;;;;5.97;5.30;;;12.20;99.90;;;;;;1035302;28;20444;-61
2022/04/16 01:07:58;;;;;;;6.97;6.20;;;12.20;99.90;;;;;;1039326;28;20013;-61
2022/04/16 01:08:30;;;;;;;6.10;5.50;;;12.20;99.90;;;;;;1039427;28;20010;-62
2022/04/16 01:09:01;;;;;;;8.07;6.18;;;12.20;99.90;;;;;;1039747;28;20021;-62
2022/04/16 01:09:33;;;;;;;6.50;5.80;;;12.20;99.90;;;;;;1039451;28;20013;-63
2022/04/16 01:10:04;;;;;;;6.93;6.22;;;12.20;99.90;;;;;;1039804;28;20101;-63
2022/04/16 01:10:35;;;;;;;8.43;6.15;;;12.20;99.90;;;;;;1039293;28;20056;-63
2022/04/16 01:11:06;;;;;;;7.00;5.90;;;12.20;99.90;;;;;;1039797;28;20068;-65
2022/04/16 01:11:36;;;;;;;6.60;6.00;;;12.10;99.90;;;;;;1039477;28;20256;-62
2022/04/16 01:12:07;;;;;;;6.17;5.57;;;12.10;99.90;;;;;;1039764;28;20063;-62
2022/04/16 01:12:38;;;;;;;6.95;6.22;;;12.10;99.90;;;;;;1039492;28;20034;-62
2022/04/16 01:13:09;;;;;;;6.70;6.10;;;12.10;99.90;;;;;;1039399;28;20026;-62
2022/04/16 01:13:40;;;;;;;6.50;5.75;;;12.10;99.90;;;;;;1034837;28;20638;-62
2022/04/16 01:14:11;;;;;;;7.72;6.85;;;12.10;99.90;;;;;;1035275;28;20101;-63
2022/04/16 01:14:42;;;;;;;8.07;7.27;;;12.10;99.90;;;;;;1035559;28;20395;-62
2022/04/16 01:15:13;;;;;;;7.23;6.27;;;12.10;99.90;;;;;;1039461;28;20649;-63
2022/04/16 01:15:47;;;;;;;6.50;5.90;;;12.10;99.90;;;;;;1039455;28;20714;-63
2022/04/16 01:16:17;;;;;;;6.72;6.03;;;12.10;99.90;;;;;;1039638;28;20021;-60
2022/04/16 01:16:48;;;;;;;6.47;5.87;;;12.10;99.90;;;;;;1039616;28;20028;-61
2022/04/16 01:17:19;;;;;;;6.47;5.87;;;12.10;99.90;;;;;;1039679;28;20100;-62
2022/04/16 01:17:51;;;;;;;6.30;5.67;;;12.10;99.90;;;;;;1039659;28;20010;-60
2022/04/16 01:18:21;;;;;;;7.82;6.07;;;12.10;99.90;;;;;;1039734;28;20021;-68
2022/04/16 01:18:52;;;;;;;6.43;5.63;;;12.10;99.90;;;;;;1039466;28;20022;-61
2022/04/16 01:19:25;;;;;;;6.63;5.88;;;12.10;99.90;;;;;;1039712;28;20021;-61
2022/04/16 01:19:57;;;;;;;6.57;5.88;;;12.10;99.90;;;;;;1039327;28;20153;-60
2022/04/16 01:20:28;;;;;;;6.85;6.25;;;12.10;99.90;;;;;;1039780;28;20400;-62
2022/04/16 01:21:02;;;;;;;6.03;5.43;;;12.10;99.90;;;;;;1039514;28;20652;-65
2022/04/16 01:21:33;;;;;;;7.60;6.25;;;12.10;99.90;;;;;;1039561;28;20248;-62
2022/04/16 01:22:05;;;;;;;6.37;5.77;;;12.10;99.90;;;;;;1039230;28;20021;-62
2022/04/16 01:22:35;;;;;;;7.07;6.38;;;12.10;99.90;;;;;;1039248;28;20023;-61
2022/04/16 01:23:07;;;;;;;5.97;5.37;;;12.10;99.90;;;;;;1039127;28;20892;-61
2022/04/16 01:23:38;;;;;;;6.75;6.05;;;12.10;99.90;;;;;;1038117;28;20052;-64
2022/04/16 01:24:09;;;;;;;6.43;5.73;;;12.10;99.90;;;;;;1039077;28;20026;-63
2022/04/16 01:24:43;;;;;;;6.70;5.70;;;12.10;99.90;;;;;;1039287;28;20391;-62
2022/04/16 01:25:14;;;;;;;7.07;6.13;;;12.10;99.90;;;;;;1039396;28;20018;-62
2022/04/16 01:25:45;;;;;;;6.68;6.07;;;12.10;99.90;;;;;;1039749;28;20033;-62
2022/04/16 01:26:15;;;;;;;5.70;5.10;;;12.10;99.90;;;;;;1039509;28;20021;-64
2022/04/16 01:26:46;;;;;;;7.30;6.20;;;12.10;99.90;;;;;;1039365;28;20040;-62
2022/04/16 01:27:18;;;;;;;8.38;6.75;;;12.10;99.90;;;;;;1039093;28;20096;-62
2022/04/16 01:27:49;;;;;;;6.60;6.00;;;12.10;99.90;;;;;;1039420;28;20072;-62
2022/04/16 01:28:20;;;;;;;6.70;6.00;;;12.10;99.90;;;;;;1039064;28;20551;-62
2022/04/16 01:28:50;;;;;;;6.82;5.82;;;12.10;99.90;;;;;;1039406;28;20022;-63
2022/04/16 01:29:22;;;;;;;6.72;6.07;;;12.10;99.90;;;;;;1039101;28;20021;-63
2022/04/16 01:29:53;;;;;;;7.10;6.47;;;12.10;99.90;;;;;;1039442;28;20041;-62
2022/04/16 01:30:24;;;;;;;6.72;6.03;;;12.10;99.90;;;;;;1035313;28;20594;-63
2022/04/16 01:30:55;;;;;;;7.78;6.35;;;12.10;99.90;;;;;;1035273;28;20119;-62
2022/04/16 01:31:25;;;;;;;7.13;6.27;;;12.10;99.90;;;;;;1034966;28;20088;-62
2022/04/16 01:31:56;;;;;;;7.13;6.43;;;12.10;99.90;;;;;;1035530;28;20018;-62
2022/04/16 01:32:27;;;;;;;6.43;5.83;;;12.10;99.90;;;;;;1039006;28;20022;-61
2022/04/16 01:32:58;;;;;;;6.93;5.80;;;12.10;99.90;;;;;;1039714;28;20642;-62
2022/04/16 01:33:30;;;;;;;6.50;5.90;;;12.10;99.90;;;;;;1039261;28;20424;-61
2022/04/16 01:34:01;;;;;;;8.02;7.07;;;12.00;99.90;;;;;;1039841;28;20010;-61
2022/04/16 01:34:32;;;;;;;7.97;6.00;;;12.00;99.90;;;;;;1038855;28;20049;-62
2022/04/16 01:35:05;;;;;;;7.38;6.50;;;12.00;99.90;;;;;;1039488;28;20013;-62
2022/04/16 01:35:35;;;;;;;7.18;6.47;;;12.00;99.90;;;;;;1038788;28;20519;-61
2022/04/16 01:36:06;;;;;;;7.63;6.80;;;12.00;99.90;;;;;;1039431;28;20477;-61
2022/04/16 01:36:37;;;;;;;7.23;6.53;;;12.00;99.90;;;;;;1039006;28;20013;-62
2022/04/16 01:37:09;;;;;;;6.50;5.90;;;12.00;99.90;;;;;;1039484;28;20488;-63
2022/04/16 01:37:40;;;;;;;6.97;6.38;;;12.00;99.90;;;;;;1039248;28;20006;-62
2022/04/16 01:38:10;;;;;;;7.50;6.70;;;12.00;99.90;;;;;;1039735;28;20437;-64
2022/04/16 01:38:41;;;;;;;6.90;6.30;;;12.00;99.90;;;;;;1039586;28;20017;-62
2022/04/16 01:39:12;;;;;;;7.33;6.50;;;12.00;99.90;;;;;;1039626;28;20092;-63
2022/04/16 01:39:42;;;;;;;7.13;6.30;;;12.00;99.90;;;;;;1039091;28;20028;-62
2022/04/16 01:40:15;;;;;;;11.13;7.20;;;12.00;99.90;;;;;;1039311;28;20574;-62
2022/04/16 01:40:45;;;;;;;8.00;7.20;;;11.90;99.90;;;;;;1038978;28;20013;-63
2022/04/16 01:41:16;;;;;;;6.70;5.80;;;11.90;99.90;;;;;;1039426;28;20018;-63
2022/04/16 01:41:46;;;;;;;7.47;6.77;;;11.90;99.90;;;;;;1039137;28;20675;-62
2022/04/16 01:42:18;;;;;;;8.47;6.80;;;11.90;99.90;;;;;;1039643;28;20072;-62
2022/04/16 01:42:49;;;;;;;9.27;6.95;;;11.90;99.90;;;;;;1039341;28;20400;-62
2022/04/16 01:43:20;;;;;;;7.80;7.00;;;11.90;99.90;;;;;;1039497;28;20437;-61
2022/04/16 01:43:51;;;;;;;6.27;5.67;;;11.90;99.90;;;;;;1036086;28;20072;-63
2022/04/16 01:44:22;;;;;;;7.78;6.95;;;11.90;99.90;;;;;;1039507;28;20024;-61
2022/04/16 01:44:53;;;;;;;8.17;7.37;;;11.90;99.90;;;;;;1038854;28;20024;-64
2022/04/16 01:45:24;;;;;;;7.40;6.65;;;11.90;99.90;;;;;;1039168;28;20045;-61
2022/04/16 01:45:55;;;;;;;6.78;6.15;;;11.90;99.90;;;;;;1039087;28;20707;-61
2022/04/16 01:46:27;;;;;;;8.57;7.68;;;11.90;99.90;;;;;;1039247;28;20020;-62
2022/04/16 01:46:57;;;;;;;7.53;6.72;;;11.90;99.90;;;;;;1039183;28;20088;-62
2022/04/16 01:47:28;;;;;;;7.53;6.83;;;11.90;99.90;;;;;;1039294;28;20048;-61
2022/04/16 01:47:59;;;;;;;7.38;6.68;;;11.80;99.90;;;;;;1039520;28;20071;-61
2022/04/16 01:48:30;;;;;;;7.78;6.97;;;11.90;99.90;;;;;;1039716;28;20092;-61
2022/04/16 01:49:01;;;;;;;7.15;6.50;;;11.90;99.90;;;;;;1039671;28;20025;-61
2022/04/16 01:49:32;;;;;;;7.57;6.80;;;11.80;99.90;;;;;;1039339;28;20033;-63
2022/04/16 01:50:05;;;;;;;7.85;7.05;;;11.90;99.90;;;;;;1039662;28;20044;-62
2022/04/16 01:50:35;;;;;;;7.65;6.95;;;11.90;99.90;;;;;;1039587;28;20550;-61
2022/04/16 01:51:07;;;;;;;7.33;6.63;;;11.90;99.90;;;;;;1034997;28;20018;-63
2022/04/16 01:51:37;;;;;;;7.63;6.93;;;11.80;99.90;;;;;;1035126;28;20006;-61
2022/04/16 01:52:09;;;;;;;7.87;7.13;;;11.80;99.90;;;;;;1035077;28;20018;-62
2022/04/16 01:52:43;;;;;;;7.88;7.10;;;11.80;99.90;;;;;;1035512;28;20022;-61
2022/04/16 01:53:14;;;;;;;7.40;6.45;;;11.80;99.90;;;;;;1039432;28;20018;-62
2022/04/16 01:53:45;;;;;;;7.93;7.05;;;11.80;99.90;;;;;;1039672;28;20101;-62
2022/04/16 01:54:16;;;;;;;8.37;7.57;;;11.80;99.90;;;;;;1039585;28;20021;-62
2022/04/16 01:54:46;;;;;;;8.20;7.17;;;11.80;99.90;;;;;;1039597;28;20093;-62
2022/04/16 01:55:17;;;;;;;8.70;7.80;;;11.80;99.90;;;;;;1039095;28;20120;-63
2022/04/16 01:55:48;;;;;;;7.80;7.10;;;11.80;99.90;;;;;;1039108;28;20088;-61
2022/04/16 01:56:19;;;;;;;7.85;7.05;;;11.80;99.90;;;;;;1039262;28;20114;-62
2022/04/16 01:56:50;;;;;;;8.07;7.32;;;11.80;99.90;;;;;;1039296;28;20014;-61
2022/04/16 01:57:20;;;;;;;8.20;7.40;;;11.80;99.90;;;;;;1039553;28;20058;-64
2022/04/16 01:57:53;;;;;;;7.57;6.87;;;11.80;99.90;;;;;;1039517;28;20499;-64
2022/04/16 01:58:24;;;;;;;11.20;8.23;;;11.80;99.90;;;;;;1038816;28;20089;-63
2022/04/16 01:58:54;;;;;;;7.50;6.33;;;11.80;99.90;;;;;;1039082;28;20017;-63
2022/04/16 01:59:25;;;;;;;8.47;7.30;;;11.80;99.90;;;;;;1039231;28;20010;-64
2022/04/16 01:59:56;;;;;;;7.27;6.57;;;11.80;99.90;;;;;;1039121;28;20625;-62
2022/04/16 02:00:26;;;;;;;8.00;7.23;;;11.80;99.90;;;;;;1039651;28;20030;-61
2022/04/16 02:00:58;;;;;;;6.97;6.28;;;11.80;99.90;;;;;;1038960;28;20268;-63
2022/04/16 02:01:28;;;;;;;8.45;7.55;;;11.80;99.90;;;;;;1039028;28;20718;-60
2022/04/16 02:01:59;;;;;;;7.73;6.93;;;11.80;99.90;;;;;;1039138;28;20053;-62
2022/04/16 02:02:30;;;;;;;8.53;7.50;;;11.80;99.90;;;;;;1039061;28;20649;-65
2022/04/16 02:03:00;;;;;;;9.17;7.40;;;11.80;99.90;;;;;;1038880;28;20275;-63
2022/04/16 02:03:32;;;;;;;7.70;7.00;;;11.80;99.90;;;;;;1038991;28;20036;-63
2022/04/16 02:04:03;;;;;;;8.50;7.60;;;11.80;99.90;;;;;;1039086;28;20021;-62
2022/04/16 02:04:35;;;;;;;7.38;6.68;;;11.80;99.90;;;;;;1039183;28;20088;-60
2022/04/16 02:05:07;;;;;;;8.98;8.07;;;11.80;99.90;;;;;;1039130;28;20020;-63
2022/04/16 02:05:37;;;;;;;8.30;7.07;;;11.80;99.90;;;;;;1034063;28;20468;-61
2022/04/16 02:06:08;;;;;;;7.77;6.87;;;11.80;99.90;;;;;;1034606;28;20010;-61
2022/04/16 02:06:38;;;;;;;9.00;7.40;;;11.80;99.90;;;;;;1038072;28;20397;-60
2022/04/16 02:07:09;;;;;;;7.63;6.93;;;11.80;99.90;;;;;;1030796;28;20026;-62
2022/04/16 02:07:40;;;;;;;7.45;6.75;;;11.80;99.90;;;;;;1035208;28;20018;-65
2022/04/16 02:08:11;;;;;;;9.47;8.57;;;11.80;99.90;;;;;;1035000;28;20451;-64
2022/04/16 02:08:41;;;;;;;9.00;7.25;;;11.80;99.90;;;;;;1035210;28;20101;-62
2022/04/16 02:09:12;;;;;;;9.47;7.57;;;11.80;99.90;;;;;;1035017;28;20128;-62
2022/04/16 02:09:42;;;;;;;9.37;7.83;;;11.80;99.90;;;;;;1035193;28;20014;-61
2022/04/16 02:10:16;;;;;;;8.03;7.23;;;11.80;99.90;;;;;;1034909;28;20037;-62
2022/04/16 02:10:47;;;;;;;7.68;6.88;;;11.80;99.90;;;;;;1035537;28;20087;-62
2022/04/16 02:11:17;;;;;;;11.70;8.07;;;11.80;99.90;;;;;;1034702;28;20464;-62
2022/04/16 02:11:48;;;;;;;8.17;7.43;;;11.80;99.90;;;;;;1035404;28;20054;-62
2022/04/16 02:12:18;;;;;;;8.23;7.40;;;11.70;99.90;;;;;;1034691;28;20018;-62
2022/04/16 02:12:49;;;;;;;7.93;6.77;;;11.70;99.90;;;;;;1035354;28;20101;-61
2022/04/16 02:13:20;;;;;;;7.97;7.17;;;11.70;99.90;;;;;;1035182;28;20021;-62
2022/04/16 02:13:51;;;;;;;8.23;7.43;;;11.70;99.90;;;;;;1035201;28;20014;-61
2022/04/16 02:14:21;;;;;;;8.88;7.97;;;11.70;99.90;;;;;;1030839;28;20065;-63
2022/04/16 02:14:52;;;;;;;8.40;7.50;;;11.70;99.90;;;;;;1031110;28;20106;-62
2022/04/16 02:15:23;;;;;;;8.37;7.57;;;11.70;99.90;;;;;;1030909;28;20096;-63
2022/04/16 02:15:54;;;;;;;10.53;7.83;;;11.70;99.90;;;;;;1035444;28;20670;-62
2022/04/16 02:16:25;;;;;;;7.90;7.10;;;11.70;99.90;;;;;;1030951;28;20015;-62
2022/04/16 02:16:57;;;;;;;7.97;7.10;;;11.70;99.90;;;;;;1035296;28;20014;-63
2022/04/16 02:17:28;;;;;;;7.90;7.15;;;11.70;99.90;;;;;;1034820;28;20493;-61
2022/04/16 02:17:58;;;;;;;8.97;7.43;;;11.70;99.90;;;;;;1035288;28;20380;-62
2022/04/16 02:18:29;;;;;;;8.30;7.30;;;11.70;99.90;;;;;;1035284;28;20370;-62
2022/04/16 02:19:00;;;;;;;8.10;7.40;;;11.70;99.90;;;;;;1035676;28;20531;-61
2022/04/16 02:19:34;;;;;;;8.32;7.53;;;11.70;99.90;;;;;;1034578;28;20017;-62
2022/04/16 02:20:06;;;;;;;9.23;7.75;;;11.70;99.90;;;;;;1037679;28;20030;-63
2022/04/16 02:20:38;;;;;;;7.85;7.10;;;11.70;99.90;;;;;;1038956;28;20093;-62
2022/04/16 02:21:10;;;;;;;8.55;7.72;;;11.70;99.90;;;;;;1039426;28;20010;-60
2022/04/16 02:21:44;;;;;;;8.27;7.45;;;11.70;99.90;;;;;;1039326;28;20093;-62
2022/04/16 02:22:16;;;;;;;8.27;7.20;;;11.70;99.90;;;;;;1039487;28;20449;-61
2022/04/16 02:22:47;;;;;;;8.52;7.72;;;11.70;99.90;;;;;;1039084;28;20016;-63
2022/04/16 02:23:18;;;;;;;8.93;8.02;;;11.70;99.90;;;;;;1039293;28;20521;-62
2022/04/16 02:23:51;;;;;;;10.33;8.13;;;11.60;99.90;;;;;;1039098;28;20648;-61
2022/04/16 02:24:22;;;;;;;8.00;7.30;;;11.60;99.90;;;;;;1035879;28;20014;-61
2022/04/16 02:24:53;;;;;;;7.57;6.77;;;11.60;99.90;;;;;;1038990;28;20025;-61
2022/04/16 02:25:26;;;;;;;9.03;7.63;;;11.60;99.90;;;;;;1039343;28;20017;-61
2022/04/16 02:25:57;;;;;;;8.93;7.75;;;11.60;99.90;;;;;;1039204;28;20428;-62
2022/04/16 02:26:27;;;;;;;8.37;7.57;;;11.60;99.90;;;;;;1039541;28;20682;-61
2022/04/16 02:26:58;;;;;;;8.00;6.90;;;11.60;99.90;;;;;;1039312;28;20017;-60
2022/04/16 02:27:28;;;;;;;9.40;8.50;;;11.60;99.90;;;;;;1039515;28;20013;-62
2022/04/16 02:27:59;;;;;;;8.90;7.63;;;11.60;99.90;;;;;;1039451;28;20448;-62
2022/04/16 02:28:29;;;;;;;8.60;7.77;;;11.60;99.90;;;;;;1039556;28;20477;-62
2022/04/16 02:29:00;;;;;;;8.03;7.33;;;11.60;99.90;;;;;;1039399;28;20072;-62
2022/04/16 02:29:31;;;;;;;8.40;7.63;;;11.60;99.90;;;;;;1039284;28;20092;-63
2022/04/16 02:30:04;;;;;;;9.27;8.05;;;11.60;99.90;;;;;;1039650;28;20021;-62
2022/04/16 02:30:37;;;;;;;8.23;7.43;;;11.60;99.90;;;;;;1039419;28;20018;-61
2022/04/16 02:31:08;;;;;;;8.95;8.10;;;11.60;99.90;;;;;;1039459;28;20376;-62
2022/04/16 02:31:38;;;;;;;9.00;8.07;;;11.60;99.90;;;;;;1039375;28;20381;-61
2022/04/16 02:32:09;;;;;;;9.03;8.13;;;11.60;99.90;;;;;;1039322;28;20275;-61
2022/04/16 02:32:43;;;;;;;8.20;7.20;;;11.60;99.90;;;;;;1039477;28;20033;-62
2022/04/16 02:33:14;;;;;;;9.02;7.50;;;11.60;99.90;;;;;;1039261;28;20014;-63
2022/04/16 02:33:44;;;;;;;9.27;8.37;;;11.60;99.90;;;;;;1039719;28;20018;-63
2022/04/16 02:34:16;;;;;;;8.53;7.50;;;11.60;99.90;;;;;;1039268;28;20451;-62
2022/04/16 02:34:47;;;;;;;8.07;7.28;;;11.60;99.90;;;;;;1039511;28;20013;-62
2022/04/16 02:35:18;;;;;;;8.90;8.10;;;11.60;99.90;;;;;;1039429;28;20022;-62
2022/04/16 02:35:49;;;;;;;9.18;8.32;;;11.60;99.90;;;;;;1039672;28;20053;-62
2022/04/16 02:36:19;;;;;;;8.70;7.80;;;11.60;99.90;;;;;;1039282;28;20032;-61
2022/04/16 02:36:50;;;;;;;8.67;7.70;;;11.60;99.90;;;;;;1039707;28;20021;-61
2022/04/16 02:37:20;;;;;;;10.03;8.13;;;11.60;99.90;;;;;;1039327;28;20025;-64
2022/04/16 02:37:51;;;;;;;9.90;8.40;;;11.60;99.90;;;;;;1039441;28;20014;-62
2022/04/16 02:38:22;;;;;;;9.13;8.23;;;11.60;99.90;;;;;;1039189;28;20064;-63
2022/04/16 02:38:54;;;;;;;9.07;8.02;;;11.60;99.90;;;;;;1039416;28;20152;-61
2022/04/16 02:39:27;;;;;;;9.75;8.43;;;11.60;99.90;;;;;;1039915;28;20071;-63
2022/04/16 02:39:58;;;;;;;8.50;7.60;;;11.60;99.90;;;;;;1040009;28;20105;-62
2022/04/16 02:40:28;;;;;;;8.43;7.63;;;11.60;99.90;;;;;;1040113;28;20014;-61
2022/04/16 02:40:59;;;;;;;8.70;7.87;;;11.60;99.90;;;;;;1040188;28;20014;-61
2022/04/16 02:41:30;;;;;;;9.03;8.20;;;11.60;99.90;;;;;;1039957;28;20060;-63
2022/04/16 02:42:01;;;;;;;8.70;7.75;;;11.60;99.90;;;;;;1035833;28;20118;-61
2022/04/16 02:42:39;;;;;;;8.80;7.53;;;11.60;99.90;;;;;;1035820;28;20030;-62